createdAt,value
2018-06-11T00:00:05.714Z,1008.18
2018-06-11T00:01:15.154Z,1008.21
2018-06-11T00:02:25.090Z,1008.17
2018-06-11T00:03:34.291Z,1008.15
2018-06-11T00:04:44.282Z,1008.2
2018-06-11T00:05:53.476Z,1008.18
2018-06-11T00:07:02.454Z,1008.21
2018-06-11T00:08:11.104Z,1008.19
2018-06-11T00:09:20.509Z,1008.2
2018-06-11T00:10:29.664Z,1008.18
2018-06-11T00:11:39.634Z,1008.16
2018-06-11T00:12:49.354Z,1008.16
2018-06-11T00:13:58.547Z,1008.14
2018-06-11T00:15:07.766Z,1008.11
2018-06-11T00:16:17.963Z,1008.11
2018-06-11T00:17:27.185Z,1008.15
2018-06-11T00:18:36.611Z,1008.14
2018-06-11T00:19:46.351Z,1008.14
2018-06-11T00:20:55.778Z,1008.13
2018-06-11T00:22:05.490Z,1008.16
2018-06-11T00:23:14.959Z,1008.16
2018-06-11T00:24:23.912Z,1008.15
2018-06-11T00:25:33.391Z,1008.16
2018-06-11T00:26:42.281Z,1008.14
2018-06-11T00:27:51.178Z,1008.18
2018-06-11T00:29:00.594Z,1008.15
2018-06-11T00:30:10.016Z,1008.13
2018-06-11T00:31:19.442Z,1008.15
2018-06-11T00:32:28.851Z,1008.14
2018-06-11T00:33:37.999Z,1008.11
2018-06-11T00:34:47.411Z,1008.1
2018-06-11T00:35:57.347Z,1008.09
2018-06-11T00:37:06.569Z,1008.13
2018-06-11T00:38:15.992Z,1008.07
2018-06-11T00:39:25.652Z,1008.11
2018-06-11T00:40:35.336Z,1008.08
2018-06-11T00:41:44.772Z,1008.07
2018-06-11T00:42:54.186Z,1008.12
2018-06-11T00:44:03.858Z,1008.1
2018-06-11T00:45:13.275Z,1008.07
2018-06-11T00:46:22.432Z,1008.09
2018-06-11T00:47:32.125Z,1008.11
2018-06-11T00:48:41.256Z,1008.12
2018-06-11T00:49:50.466Z,1008.14
2018-06-11T00:51:00.488Z,1008.12
2018-06-11T00:52:09.898Z,1008.08
2018-06-11T00:53:19.318Z,1008.1
2018-06-11T00:54:29.013Z,1008.1
2018-06-11T00:55:38.433Z,1008.08
2018-06-11T00:56:47.604Z,1008.13
2018-06-11T00:57:57.273Z,1008.09
2018-06-11T00:59:06.948Z,1008.15
2018-06-11T01:00:16.109Z,1008.1
2018-06-11T01:01:25.546Z,1008.07
2018-06-11T01:02:34.964Z,1008.15
2018-06-11T01:03:44.381Z,1008.12
2018-06-11T01:04:54.095Z,1008.13
2018-06-11T01:06:03.515Z,1008.13
2018-06-11T01:07:13.223Z,1008.11
2018-06-11T01:08:22.907Z,1008.12
2018-06-11T01:09:32.335Z,1008.11
2018-06-11T01:10:42.004Z,1008.15
2018-06-11T01:11:51.420Z,1008.12
2018-06-11T01:13:00.828Z,1008.08
2018-06-11T01:14:10.254Z,1008.14
2018-06-11T01:15:19.932Z,1008.15
2018-06-11T01:16:29.605Z,1008.09
2018-06-11T01:17:39.017Z,1008.09
2018-06-11T01:18:48.716Z,1008.18
2018-06-11T01:19:58.142Z,1008.15
2018-06-11T01:21:07.820Z,1008.13
2018-06-11T01:22:17.495Z,1008.14
2018-06-11T01:23:27.172Z,1008.14
2018-06-11T01:24:36.343Z,1008.09
2018-06-11T01:25:45.530Z,1008.09
2018-06-11T01:26:54.955Z,1008.08
2018-06-11T01:28:04.377Z,1008.09
2018-06-11T01:29:13.540Z,1008.09
2018-06-11T01:30:22.968Z,1008.1
2018-06-11T01:31:32.662Z,1008.07
2018-06-11T01:32:42.079Z,1008.08
2018-06-11T01:33:51.494Z,1008.04
2018-06-11T01:35:00.127Z,1008.02
2018-06-11T01:36:10.061Z,1007.99
2018-06-11T01:37:19.735Z,1007.95
2018-06-11T01:38:28.890Z,1007.97
2018-06-11T01:39:38.313Z,1007.99
2018-06-11T01:40:47.726Z,1007.99
2018-06-11T01:41:56.638Z,1007.97
2018-06-11T01:43:05.797Z,1007.99
2018-06-11T01:44:15.214Z,1007.98
2018-06-11T01:45:24.882Z,1007.94
2018-06-11T01:46:34.339Z,1007.92
2018-06-11T01:47:43.522Z,1007.88
2018-06-11T01:48:53.452Z,1007.85
2018-06-11T01:50:03.398Z,1007.83
2018-06-11T01:51:12.548Z,1007.79
2018-06-11T01:52:22.513Z,1007.77
2018-06-11T01:53:32.186Z,1007.73
2018-06-11T01:54:42.108Z,1007.75
2018-06-11T01:55:51.514Z,1007.72
2018-06-11T01:57:00.724Z,1007.69
2018-06-11T01:58:10.146Z,1007.68
2018-06-11T01:59:19.048Z,1007.69
2018-06-11T02:00:28.199Z,1007.7
2018-06-11T02:01:37.611Z,1007.65
2018-06-11T02:02:46.525Z,1007.64
2018-06-11T02:03:56.188Z,1007.64
2018-06-11T02:05:05.593Z,1007.63
2018-06-11T02:06:14.756Z,1007.63
2018-06-11T02:07:24.452Z,1007.58
2018-06-11T02:08:34.120Z,1007.59
2018-06-11T02:09:43.790Z,1007.55
2018-06-11T02:10:53.450Z,1007.56
2018-06-11T02:12:02.629Z,1007.56
2018-06-11T02:13:11.522Z,1007.52
2018-06-11T02:14:21.182Z,1007.47
2018-06-11T02:15:30.611Z,1007.46
2018-06-11T02:16:40.282Z,1007.48
2018-06-11T02:17:49.485Z,1007.51
2018-06-11T02:18:58.892Z,1007.46
2018-06-11T02:20:08.040Z,1007.49
2018-06-11T02:21:17.724Z,1007.5
2018-06-11T02:22:26.637Z,1007.49
2018-06-11T02:23:35.292Z,1007.51
2018-06-11T02:24:44.964Z,1007.51
2018-06-11T02:25:54.376Z,1007.48
2018-06-11T02:27:04.054Z,1007.51
2018-06-11T02:28:13.207Z,1007.53
2018-06-11T02:29:21.851Z,1007.51
2018-06-11T02:30:30.993Z,1007.56
2018-06-11T02:31:40.162Z,1007.54
2018-06-11T02:32:49.844Z,1007.53
2018-06-11T02:33:59.261Z,1007.53
2018-06-11T02:35:08.679Z,1007.51
2018-06-11T02:36:18.101Z,1007.51
2018-06-11T02:37:27.773Z,1007.51
2018-06-11T02:38:37.469Z,1007.46
2018-06-11T02:39:46.875Z,1007.42
2018-06-11T02:40:56.549Z,1007.43
2018-06-11T02:42:05.986Z,1007.4
2018-06-11T02:43:15.443Z,1007.4
2018-06-11T02:44:25.114Z,1007.38
2018-06-11T02:45:34.539Z,1007.41
2018-06-11T02:46:43.953Z,1007.39
2018-06-11T02:47:53.361Z,1007.39
2018-06-11T02:49:03.046Z,1007.37
2018-06-11T02:50:12.709Z,1007.37
2018-06-11T02:51:22.131Z,1007.36
2018-06-11T02:52:31.791Z,1007.37
2018-06-11T02:53:41.715Z,1007.38
2018-06-11T02:54:50.890Z,1007.36
2018-06-11T02:56:00.826Z,1007.32
2018-06-11T02:57:10.520Z,1007.31
2018-06-11T02:58:19.689Z,1007.32
2018-06-11T02:59:29.366Z,1007.33
2018-06-11T03:00:38.583Z,1007.37
2018-06-11T03:01:47.743Z,1007.38
2018-06-11T03:02:56.900Z,1007.37
2018-06-11T03:04:06.326Z,1007.4
2018-06-11T03:05:15.740Z,1007.38
2018-06-11T03:06:25.421Z,1007.41
2018-06-11T03:07:34.344Z,1007.39
2018-06-11T03:08:44.045Z,1007.38
2018-06-11T03:09:53.729Z,1007.41
2018-06-11T03:11:03.680Z,1007.4
2018-06-11T03:12:13.097Z,1007.4
2018-06-11T03:13:22.785Z,1007.4
2018-06-11T03:14:32.465Z,1007.42
2018-06-11T03:15:42.153Z,1007.4
2018-06-11T03:16:51.584Z,1007.37
2018-06-11T03:18:01.031Z,1007.41
2018-06-11T03:19:10.193Z,1007.39
2018-06-11T03:20:19.870Z,1007.38
2018-06-11T03:21:29.555Z,1007.37
2018-06-11T03:22:38.991Z,1007.37
2018-06-11T03:23:48.524Z,1007.37
2018-06-11T03:24:58.096Z,1007.42
2018-06-11T03:26:07.552Z,1007.39
2018-06-11T03:27:16.994Z,1007.44
2018-06-11T03:28:26.925Z,1007.48
2018-06-11T03:29:36.383Z,1007.48
2018-06-11T03:30:46.069Z,1007.42
2018-06-11T03:31:55.237Z,1007.43
2018-06-11T03:33:04.665Z,1007.39
2018-06-11T03:34:13.807Z,1007.39
2018-06-11T03:35:23.209Z,1007.37
2018-06-11T03:36:32.892Z,1007.39
2018-06-11T03:37:42.556Z,1007.38
2018-06-11T03:38:51.720Z,1007.39
2018-06-11T03:40:00.895Z,1007.37
2018-06-11T03:41:10.059Z,1007.34
2018-06-11T03:42:19.474Z,1007.28
2018-06-11T03:43:28.892Z,1007.26
2018-06-11T03:44:37.541Z,1007.25
2018-06-11T03:45:47.216Z,1007.25
2018-06-11T03:46:56.426Z,1007.26
2018-06-11T03:48:05.856Z,1007.26
2018-06-11T03:49:15.020Z,1007.3
2018-06-11T03:50:24.447Z,1007.34
2018-06-11T03:51:33.870Z,1007.42
2018-06-11T03:52:43.302Z,1007.43
2018-06-11T03:53:52.813Z,1007.45
2018-06-11T03:55:01.975Z,1007.46
2018-06-11T03:56:10.873Z,1007.45
2018-06-11T03:57:20.540Z,1007.49
2018-06-11T03:58:30.217Z,1007.47
2018-06-11T03:59:39.372Z,1007.46
2018-06-11T04:00:48.600Z,1007.42
2018-06-11T04:01:58.039Z,1007.43
2018-06-11T04:03:07.234Z,1007.42
2018-06-11T04:04:16.382Z,1007.42
2018-06-11T04:05:25.797Z,1007.42
2018-06-11T04:06:35.212Z,1007.44
2018-06-11T04:07:44.880Z,1007.5
2018-06-11T04:08:54.298Z,1007.53
2018-06-11T04:10:03.200Z,1007.55
2018-06-11T04:11:13.020Z,1007.55
2018-06-11T04:12:22.081Z,1007.54
2018-06-11T04:13:31.756Z,1007.58
2018-06-11T04:14:41.179Z,1007.59
2018-06-11T04:15:50.354Z,1007.57
2018-06-11T04:16:59.788Z,1007.56
2018-06-11T04:18:08.953Z,1007.61
2018-06-11T04:19:18.380Z,1007.54
2018-06-11T04:20:28.113Z,1007.54
2018-06-11T04:21:37.280Z,1007.56
2018-06-11T04:22:46.951Z,1007.54
2018-06-11T04:23:56.621Z,1007.59
2018-06-11T04:25:06.089Z,1007.62
2018-06-11T04:26:15.525Z,1007.65
2018-06-11T04:27:25.211Z,1007.69
2018-06-11T04:28:34.361Z,1007.68
2018-06-11T04:29:44.027Z,1007.68
2018-06-11T04:30:53.438Z,1007.64
2018-06-11T04:32:02.597Z,1007.65
2018-06-11T04:33:12.013Z,1007.68
2018-06-11T04:34:21.174Z,1007.67
2018-06-11T04:35:31.108Z,1007.61
2018-06-11T04:36:40.516Z,1007.65
2018-06-11T04:37:50.198Z,1007.64
2018-06-11T04:38:59.611Z,1007.61
2018-06-11T04:40:08.775Z,1007.64
2018-06-11T04:41:18.462Z,1007.69
2018-06-11T04:42:27.371Z,1007.66
2018-06-11T04:43:36.274Z,1007.72
2018-06-11T04:44:45.431Z,1007.7
2018-06-11T04:45:54.066Z,1007.73
2018-06-11T04:47:04.112Z,1007.72
2018-06-11T04:48:14.503Z,1007.71
2018-06-11T04:49:23.684Z,1007.74
2018-06-11T04:50:32.599Z,1007.72
2018-06-11T04:51:42.289Z,1007.68
2018-06-11T04:52:51.431Z,1007.67
2018-06-11T04:54:01.090Z,1007.66
2018-06-11T04:55:10.254Z,1007.66
2018-06-11T04:56:19.409Z,1007.66
2018-06-11T04:57:29.105Z,1007.66
2018-06-11T04:58:38.262Z,1007.7
2018-06-11T04:59:48.447Z,1007.73
2018-06-11T05:00:57.891Z,1007.73
2018-06-11T05:02:06.803Z,1007.74
2018-06-11T05:03:16.647Z,1007.73
2018-06-11T05:04:27.788Z,1007.73
2018-06-11T05:05:37.252Z,1007.74
2018-06-11T05:06:46.671Z,1007.76
2018-06-11T05:07:56.089Z,1007.73
2018-06-11T05:09:04.988Z,1007.72
2018-06-11T05:10:14.423Z,1007.67
2018-06-11T05:11:23.866Z,1007.68
2018-06-11T05:12:33.531Z,1007.74
2018-06-11T05:13:42.692Z,1007.7
2018-06-11T05:14:52.368Z,1007.71
2018-06-11T05:16:02.307Z,1007.75
2018-06-11T05:17:11.987Z,1007.7
2018-06-11T05:18:21.134Z,1007.69
2018-06-11T05:19:30.544Z,1007.71
2018-06-11T05:20:39.945Z,1007.72
2018-06-11T05:21:49.342Z,1007.75
2018-06-11T05:22:58.763Z,1007.81
2018-06-11T05:24:08.198Z,1007.77
2018-06-11T05:25:18.143Z,1007.8
2018-06-11T05:26:27.811Z,1007.78
2018-06-11T05:27:36.970Z,1007.85
2018-06-11T05:28:46.653Z,1007.85
2018-06-11T05:29:56.790Z,1007.84
2018-06-11T05:31:06.469Z,1007.79
2018-06-11T05:32:15.874Z,1007.81
2018-06-11T05:33:25.266Z,1007.8
2018-06-11T05:34:34.447Z,1007.81
2018-06-11T05:35:44.393Z,1007.81
2018-06-11T05:36:53.548Z,1007.83
2018-06-11T05:38:03.231Z,1007.83
2018-06-11T05:39:12.746Z,1007.86
2018-06-11T05:40:22.507Z,1007.86
2018-06-11T05:41:32.526Z,1007.86
2018-06-11T05:42:42.197Z,1007.84
2018-06-11T05:43:51.888Z,1007.89
2018-06-11T05:45:01.316Z,1007.91
2018-06-11T05:46:10.746Z,1007.9
2018-06-11T05:47:20.442Z,1007.86
2018-06-11T05:48:29.869Z,1007.87
2018-06-11T05:49:39.588Z,1007.86
2018-06-11T05:50:49.008Z,1007.85
2018-06-11T05:51:58.438Z,1007.84
2018-06-11T05:53:08.172Z,1007.84
2018-06-11T05:54:17.599Z,1007.83
2018-06-11T05:55:27.009Z,1007.82
2018-06-11T05:56:36.671Z,1007.77
2018-06-11T05:57:46.603Z,1007.79
2018-06-11T05:58:56.541Z,1007.8
2018-06-11T06:00:06.205Z,1007.82
2018-06-11T06:01:15.385Z,1007.84
2018-06-11T06:02:24.312Z,1007.8
2018-06-11T06:03:33.462Z,1007.75
2018-06-11T06:04:43.125Z,1007.69
2018-06-11T06:05:52.550Z,1007.66
2018-06-11T06:07:02.489Z,1007.67
2018-06-11T06:08:11.397Z,1007.63
2018-06-11T06:09:20.335Z,1007.66
2018-06-11T06:10:29.772Z,1007.69
2018-06-11T06:11:39.447Z,1007.68
2018-06-11T06:12:48.637Z,1007.66
2018-06-11T06:13:57.801Z,1007.64
2018-06-11T06:15:07.578Z,1007.61
2018-06-11T06:16:17.043Z,1007.65
2018-06-11T06:17:26.797Z,1007.7
2018-06-11T06:18:36.226Z,1007.62
2018-06-11T06:19:45.657Z,1007.59
2018-06-11T06:20:54.828Z,1007.6
2018-06-11T06:22:03.995Z,1007.56
2018-06-11T06:23:13.165Z,1007.55
2018-06-11T06:24:22.604Z,1007.53
2018-06-11T06:25:31.518Z,1007.6
2018-06-11T06:26:41.010Z,1007.57
2018-06-11T06:27:51.170Z,1007.56
2018-06-11T06:29:00.345Z,1007.58
2018-06-11T06:30:09.765Z,1007.58
2018-06-11T06:31:19.199Z,1007.6
2018-06-11T06:32:28.878Z,1007.67
2018-06-11T06:33:38.303Z,1007.7
2018-06-11T06:34:48.073Z,1007.74
2018-06-11T06:35:57.420Z,1007.79
2018-06-11T06:37:06.621Z,1007.79
2018-06-11T06:38:16.299Z,1007.76
2018-06-11T06:39:25.216Z,1007.74
2018-06-11T06:40:35.284Z,1007.75
2018-06-11T06:41:45.046Z,1007.76
2018-06-11T06:42:53.681Z,1007.75
2018-06-11T06:44:03.088Z,1007.75
2018-06-11T06:45:13.048Z,1007.76
2018-06-11T06:46:22.212Z,1007.75
2018-06-11T06:47:31.628Z,1007.76
2018-06-11T06:48:41.035Z,1007.8
2018-06-11T06:49:50.456Z,1007.8
2018-06-11T06:50:59.858Z,1007.78
2018-06-11T06:52:08.758Z,1007.78
2018-06-11T06:53:17.656Z,1007.76
2018-06-11T06:54:27.071Z,1007.79
2018-06-11T06:55:36.523Z,1007.82
2018-06-11T06:56:46.446Z,1007.81
2018-06-11T06:57:56.131Z,1007.83
2018-06-11T06:59:05.819Z,1007.82
2018-06-11T07:00:14.984Z,1007.8
2018-06-11T07:01:24.411Z,1007.83
2018-06-11T07:02:33.840Z,1007.87
2018-06-11T07:03:43.005Z,1007.86
2018-06-11T07:04:52.430Z,1007.85
2018-06-11T07:06:01.591Z,1007.87
2018-06-11T07:07:11.005Z,1007.84
2018-06-11T07:08:20.421Z,1007.87
2018-06-11T07:09:29.865Z,1007.88
2018-06-11T07:10:39.294Z,1007.88
2018-06-11T07:11:48.995Z,1007.85
2018-06-11T07:12:58.144Z,1007.88
2018-06-11T07:14:07.829Z,1007.9
2018-06-11T07:15:17.502Z,1007.89
2018-06-11T07:16:26.649Z,1007.91
2018-06-11T07:17:36.079Z,1007.92
2018-06-11T07:18:45.768Z,1007.92
2018-06-11T07:19:55.681Z,1007.88
2018-06-11T07:21:05.608Z,1007.87
2018-06-11T07:22:15.035Z,1007.82
2018-06-11T07:23:24.713Z,1007.8
2018-06-11T07:24:34.137Z,1007.79
2018-06-11T07:25:43.294Z,1007.8
2018-06-11T07:26:52.721Z,1007.8
2018-06-11T07:28:02.173Z,1007.89
2018-06-11T07:29:11.395Z,1007.88
2018-06-11T07:30:20.804Z,1007.87
2018-06-11T07:31:29.967Z,1007.84
2018-06-11T07:32:39.664Z,1007.92
2018-06-11T07:33:49.602Z,1007.91
2018-06-11T07:34:58.511Z,1007.91
2018-06-11T07:36:08.440Z,1007.97
2018-06-11T07:37:17.864Z,1007.96
2018-06-11T07:38:27.316Z,1007.92
2018-06-11T07:39:36.735Z,1007.96
2018-06-11T07:40:46.410Z,1007.94
2018-06-11T07:41:56.421Z,1007.9
2018-06-11T07:43:06.102Z,1007.89
2018-06-11T07:44:15.270Z,1007.89
2018-06-11T07:45:24.697Z,1007.84
2018-06-11T07:46:34.128Z,1007.87
2018-06-11T07:47:43.828Z,1007.87
2018-06-11T07:48:53.503Z,1007.88
2018-06-11T07:50:02.674Z,1007.87
2018-06-11T07:51:12.088Z,1007.89
2018-06-11T07:52:20.999Z,1007.91
2018-06-11T07:53:30.269Z,1007.9
2018-06-11T07:54:39.699Z,1007.92
2018-06-11T07:55:49.136Z,1007.87
2018-06-11T07:56:58.824Z,1007.85
2018-06-11T07:58:08.834Z,1007.86
2018-06-11T07:59:18.528Z,1007.89
2018-06-11T08:00:28.209Z,1007.86
2018-06-11T08:01:37.646Z,1007.85
2018-06-11T08:02:47.354Z,1007.77
2018-06-11T08:03:56.789Z,1007.75
2018-06-11T08:05:06.490Z,1007.75
2018-06-11T08:06:15.398Z,1007.73
2018-06-11T08:07:24.836Z,1007.73
2018-06-11T08:08:34.394Z,1007.74
2018-06-11T08:09:43.552Z,1007.74
2018-06-11T08:10:53.251Z,1007.8
2018-06-11T08:12:02.967Z,1007.79
2018-06-11T08:13:12.397Z,1007.78
2018-06-11T08:14:21.889Z,1007.77
2018-06-11T08:15:31.336Z,1007.75
2018-06-11T08:16:40.781Z,1007.74
2018-06-11T08:17:49.951Z,1007.69
2018-06-11T08:18:59.120Z,1007.69
2018-06-11T08:20:08.015Z,1007.67
2018-06-11T08:21:17.957Z,1007.61
2018-06-11T08:22:27.378Z,1007.61
2018-06-11T08:23:37.046Z,1007.58
2018-06-11T08:24:46.723Z,1007.51
2018-06-11T08:25:55.894Z,1007.48
2018-06-11T08:27:05.300Z,1007.47
2018-06-11T08:28:14.705Z,1007.45
2018-06-11T08:29:23.868Z,1007.45
2018-06-11T08:30:33.535Z,1007.38
2018-06-11T08:31:42.687Z,1007.44
2018-06-11T08:32:51.852Z,1007.41
2018-06-11T08:34:01.969Z,1007.38
2018-06-11T08:35:11.396Z,1007.43
2018-06-11T08:36:20.548Z,1007.38
2018-06-11T08:37:30.506Z,1007.44
2018-06-11T08:38:39.684Z,1007.47
2018-06-11T08:39:49.388Z,1007.5
2018-06-11T08:40:58.293Z,1007.52
2018-06-11T08:42:08.081Z,1007.48
2018-06-11T08:43:17.862Z,1007.54
2018-06-11T08:44:27.529Z,1007.49
2018-06-11T08:45:36.477Z,1007.47
2018-06-11T08:46:45.642Z,1007.47
2018-06-11T08:47:55.587Z,1007.45
2018-06-11T08:49:05.002Z,1007.46
2018-06-11T08:50:14.194Z,1007.49
2018-06-11T08:51:23.349Z,1007.53
2018-06-11T08:52:33.079Z,1007.57
2018-06-11T08:53:42.753Z,1007.55
2018-06-11T08:54:51.926Z,1007.55
2018-06-11T08:56:01.614Z,1007.56
2018-06-11T08:57:11.616Z,1007.55
2018-06-11T08:58:20.794Z,1007.63
2018-06-11T08:59:29.940Z,1007.57
2018-06-11T09:00:39.627Z,1007.57
2018-06-11T09:01:49.309Z,1007.63
2018-06-11T09:02:58.761Z,1007.61
2018-06-11T09:04:07.924Z,1007.58
2018-06-11T09:05:17.069Z,1007.63
2018-06-11T09:06:26.254Z,1007.61
2018-06-11T09:07:35.917Z,1007.61
2018-06-11T09:08:45.332Z,1007.6
2018-06-11T09:09:54.741Z,1007.62
2018-06-11T09:11:04.413Z,1007.64
2018-06-11T09:12:13.307Z,1007.58
2018-06-11T09:13:22.234Z,1007.58
2018-06-11T09:14:31.658Z,1007.64
2018-06-11T09:15:40.821Z,1007.66
2018-06-11T09:16:50.233Z,1007.67
2018-06-11T09:17:59.709Z,1007.69
2018-06-11T09:19:09.971Z,1007.66
2018-06-11T09:20:19.630Z,1007.71
2018-06-11T09:21:29.293Z,1007.67
2018-06-11T09:22:38.709Z,1007.69
2018-06-11T09:23:48.151Z,1007.69
2018-06-11T09:24:57.584Z,1007.66
2018-06-11T09:26:07.159Z,1007.66
2018-06-11T09:27:16.581Z,1007.7
2018-06-11T09:28:26.007Z,1007.69
2018-06-11T09:29:35.935Z,1007.71
2018-06-11T09:30:45.098Z,1007.69
2018-06-11T09:31:54.526Z,1007.67
2018-06-11T09:33:03.948Z,1007.67
2018-06-11T09:34:12.864Z,1007.67
2018-06-11T09:35:22.537Z,1007.68
2018-06-11T09:36:32.473Z,1007.61
2018-06-11T09:37:41.370Z,1007.6
2018-06-11T09:38:50.539Z,1007.6
2018-06-11T09:39:59.942Z,1007.54
2018-06-11T09:41:08.830Z,1007.54
2018-06-11T09:42:18.511Z,1007.48
2018-06-11T09:43:28.529Z,1007.49
2018-06-11T09:44:37.696Z,1007.45
2018-06-11T09:45:46.862Z,1007.35
2018-06-11T09:46:56.542Z,1007.4
2018-06-11T09:48:05.795Z,1007.39
2018-06-11T09:49:14.992Z,1007.48
2018-06-11T09:50:24.523Z,1007.47
2018-06-11T09:51:34.525Z,1007.53
2018-06-11T09:52:43.418Z,1007.47
2018-06-11T09:53:53.346Z,1007.46
2018-06-11T09:55:02.749Z,1007.45
2018-06-11T09:56:11.690Z,1007.47
2018-06-11T09:57:21.126Z,1007.47
2018-06-11T09:58:30.286Z,1007.44
2018-06-11T09:59:39.264Z,1007.41
2018-06-11T10:00:48.767Z,1007.42
2018-06-11T10:01:58.200Z,1007.33
2018-06-11T10:03:07.111Z,1007.31
2018-06-11T10:04:16.790Z,1007.29
2018-06-11T10:05:26.486Z,1007.37
2018-06-11T10:06:36.161Z,1007.4
2018-06-11T10:07:45.579Z,1007.36
2018-06-11T10:08:55.007Z,1007.36
2018-06-11T10:10:04.742Z,1007.33
2018-06-11T10:11:14.425Z,1007.34
2018-06-11T10:12:23.412Z,1007.33
2018-06-11T10:13:33.999Z,1007.4
2018-06-11T10:14:43.947Z,1007.34
2018-06-11T10:15:53.626Z,1007.29
2018-06-11T10:17:03.290Z,1007.38
2018-06-11T10:18:12.725Z,1007.4
2018-06-11T10:19:22.449Z,1007.39
2018-06-11T10:20:32.223Z,1007.42
2018-06-11T10:21:41.375Z,1007.43
2018-06-11T10:22:51.041Z,1007.51
2018-06-11T10:24:00.477Z,1007.48
2018-06-11T10:25:10.179Z,1007.5
2018-06-11T10:26:19.868Z,1007.52
2018-06-11T10:27:29.307Z,1007.52
2018-06-11T10:28:38.989Z,1007.55
2018-06-11T10:29:48.138Z,1007.53
2018-06-11T10:30:57.055Z,1007.45
2018-06-11T10:32:06.477Z,1007.38
2018-06-11T10:33:15.816Z,1007.38
2018-06-11T10:34:25.229Z,1007.3
2018-06-11T10:35:35.157Z,1007.22
2018-06-11T10:36:44.575Z,1007.25
2018-06-11T10:37:53.471Z,1007.2
2018-06-11T10:39:02.930Z,1007.16
2018-06-11T10:40:13.231Z,1007.17
2018-06-11T10:41:22.409Z,1007.18
2018-06-11T10:42:31.892Z,1007.24
2018-06-11T10:43:40.791Z,1007.22
2018-06-11T10:44:50.104Z,1007.33
2018-06-11T10:45:59.532Z,1007.25
2018-06-11T10:47:08.942Z,1007.32
2018-06-11T10:48:18.088Z,1007.27
2018-06-11T10:49:27.507Z,1007.21
2018-06-11T10:50:36.935Z,1007.15
2018-06-11T10:51:46.882Z,1007.16
2018-06-11T10:52:56.593Z,1007.11
2018-06-11T10:54:05.503Z,1007.1
2018-06-11T10:55:14.930Z,1007.07
2018-06-11T10:56:23.824Z,1007.02
2018-06-11T10:57:33.246Z,1006.97
2018-06-11T10:58:42.400Z,1007.03
2018-06-11T10:59:51.027Z,1006.99
2018-06-11T11:01:00.489Z,1007.02
2018-06-11T11:02:09.655Z,1007.01
2018-06-11T11:03:19.334Z,1007.02
2018-06-11T11:04:28.516Z,1006.99
2018-06-11T11:05:38.529Z,1006.96
2018-06-11T11:06:47.956Z,1006.92
2018-06-11T11:07:57.788Z,1006.96
2018-06-11T11:09:07.469Z,1006.88
2018-06-11T11:10:16.635Z,1006.91
2018-06-11T11:11:25.538Z,1006.91
2018-06-11T11:12:35.238Z,1006.87
2018-06-11T11:13:45.213Z,1006.89
2018-06-11T11:14:54.381Z,1006.84
2018-06-11T11:16:03.363Z,1006.82
2018-06-11T11:17:12.560Z,1006.77
2018-06-11T11:18:22.249Z,1006.7
2018-06-11T11:19:31.681Z,1006.66
2018-06-11T11:20:40.612Z,1006.73
2018-06-11T11:21:49.532Z,1006.79
2018-06-11T11:22:59.041Z,1006.71
2018-06-11T11:24:08.202Z,1006.78
2018-06-11T11:25:17.916Z,1006.77
2018-06-11T11:26:27.377Z,1006.73
2018-06-11T11:27:37.572Z,1006.73
2018-06-11T11:28:47.265Z,1006.76
2018-06-11T11:29:56.961Z,1006.72
2018-06-11T11:31:06.682Z,1006.73
2018-06-11T11:32:15.850Z,1006.72
2018-06-11T11:33:25.532Z,1006.8
2018-06-11T11:34:34.993Z,1006.8
2018-06-11T11:35:44.672Z,1006.75
2018-06-11T11:36:53.623Z,1006.76
2018-06-11T11:38:03.432Z,1006.72
2018-06-11T11:39:12.595Z,1006.69
2018-06-11T11:40:21.768Z,1006.71
2018-06-11T11:41:31.250Z,1006.72
2018-06-11T11:42:40.929Z,1006.68
2018-06-11T11:43:50.089Z,1006.66
2018-06-11T11:44:59.250Z,1006.78
2018-06-11T11:46:08.685Z,1006.67
2018-06-11T11:47:18.815Z,1006.64
2018-06-11T11:48:27.861Z,1006.62
2018-06-11T11:49:37.551Z,1006.64
2018-06-11T11:50:47.009Z,1006.62
2018-06-11T11:51:56.436Z,1006.53
2018-06-11T11:53:05.845Z,1006.55
2018-06-11T11:54:14.731Z,1006.59
2018-06-11T11:55:24.691Z,1006.54
2018-06-11T11:56:33.845Z,1006.5
2018-06-11T11:57:43.561Z,1006.49
2018-06-11T11:58:53.238Z,1006.5
2018-06-11T12:00:02.847Z,1006.47
2018-06-11T12:01:12.533Z,1006.41
2018-06-11T12:02:22.213Z,1006.4
2018-06-11T12:03:31.643Z,1006.37
2018-06-11T12:04:41.341Z,1006.34
2018-06-11T12:05:51.023Z,1006.36
2018-06-11T12:07:00.953Z,1006.31
2018-06-11T12:08:10.936Z,1006.29
2018-06-11T12:09:20.507Z,1006.24
2018-06-11T12:10:29.929Z,1006.31
2018-06-11T12:11:39.154Z,1006.31
2018-06-11T12:12:49.093Z,1006.25
2018-06-11T12:13:58.241Z,1006.28
2018-06-11T12:15:07.134Z,1006.28
2018-06-11T12:16:16.587Z,1006.23
2018-06-11T12:17:25.996Z,1006.17
2018-06-11T12:18:34.930Z,1006.19
2018-06-11T12:19:44.358Z,1006.16
2018-06-11T12:20:54.049Z,1006.17
2018-06-11T12:22:03.478Z,1006.17
2018-06-11T12:23:13.180Z,1006.03
2018-06-11T12:24:22.590Z,1006.01
2018-06-11T12:25:32.261Z,1005.97
2018-06-11T12:26:41.690Z,1005.97
2018-06-11T12:27:50.875Z,1005.97
2018-06-11T12:29:00.612Z,1005.91
2018-06-11T12:30:09.762Z,1005.99
2018-06-11T12:31:18.678Z,1005.94
2018-06-11T12:32:28.182Z,1005.93
2018-06-11T12:33:37.872Z,1005.92
2018-06-11T12:34:47.038Z,1005.9
2018-06-11T12:35:56.799Z,1005.88
2018-06-11T12:37:06.101Z,1005.84
2018-06-11T12:38:15.329Z,1005.84
2018-06-11T12:39:24.232Z,1005.88
2018-06-11T12:40:33.934Z,1005.9
2018-06-11T12:41:43.168Z,1005.83
2018-06-11T12:42:52.595Z,1005.85
2018-06-11T12:44:01.483Z,1005.85
2018-06-11T12:45:10.915Z,1005.91
2018-06-11T12:46:20.339Z,1005.94
2018-06-11T12:47:29.525Z,1005.89
2018-06-11T12:48:39.203Z,1005.8
2018-06-11T12:49:48.831Z,1005.76
2018-06-11T12:50:58.054Z,1005.76
2018-06-11T12:52:07.566Z,1005.77
2018-06-11T12:53:16.724Z,1005.78
2018-06-11T12:54:26.146Z,1005.74
2018-06-11T12:55:35.660Z,1005.71
2018-06-11T12:56:44.843Z,1005.71
2018-06-11T12:57:54.077Z,1005.71
2018-06-11T12:59:02.999Z,1005.73
2018-06-11T13:00:12.420Z,1005.61
2018-06-11T13:01:21.844Z,1005.63
2018-06-11T13:02:31.444Z,1005.74
2018-06-11T13:03:40.631Z,1005.67
2018-06-11T13:04:50.743Z,1005.68
2018-06-11T13:05:59.976Z,1005.7
2018-06-11T13:07:09.783Z,1005.72
2018-06-11T13:08:19.582Z,1005.65
2018-06-11T13:09:29.512Z,1005.64
2018-06-11T13:10:39.494Z,1005.69
2018-06-11T13:11:48.660Z,1005.67
2018-06-11T13:12:58.374Z,1005.64
2018-06-11T13:14:07.690Z,1005.69
2018-06-11T13:15:16.978Z,1005.64
2018-06-11T13:16:26.944Z,1005.68
2018-06-11T13:17:36.091Z,1005.71
2018-06-11T13:18:45.817Z,1005.62
2018-06-11T13:19:55.228Z,1005.65
2018-06-11T13:21:04.124Z,1005.65
2018-06-11T13:22:13.792Z,1005.59
2018-06-11T13:23:23.491Z,1005.61
2018-06-11T13:24:33.184Z,1005.61
2018-06-11T13:25:42.857Z,1005.65
2018-06-11T13:26:52.278Z,1005.64
2018-06-11T13:28:01.430Z,1005.62
2018-06-11T13:29:10.359Z,1005.6
2018-06-11T13:30:19.764Z,1005.53
2018-06-11T13:31:29.299Z,1005.55
2018-06-11T13:32:38.964Z,1005.56
2018-06-11T13:33:48.147Z,1005.59
2018-06-11T13:34:57.864Z,1005.54
2018-06-11T13:36:07.294Z,1005.67
2018-06-11T13:37:16.455Z,1005.62
2018-06-11T13:38:26.162Z,1005.62
2018-06-11T13:39:35.320Z,1005.63
2018-06-11T13:40:44.481Z,1005.63
2018-06-11T13:41:54.057Z,1005.59
2018-06-11T13:43:02.969Z,1005.62
2018-06-11T13:44:12.401Z,1005.62
2018-06-11T13:45:21.302Z,1005.57
2018-06-11T13:46:31.009Z,1005.53
2018-06-11T13:47:40.673Z,1005.54
2018-06-11T13:48:49.831Z,1005.5
2018-06-11T13:49:58.998Z,1005.5
2018-06-11T13:51:08.231Z,1005.47
2018-06-11T13:52:17.637Z,1005.5
2018-06-11T13:53:27.060Z,1005.54
2018-06-11T13:54:36.759Z,1005.5
2018-06-11T13:55:46.703Z,1005.48
2018-06-11T13:56:56.401Z,1005.53
2018-06-11T13:58:06.615Z,1005.45
2018-06-11T13:59:15.771Z,1005.5
2018-06-11T14:00:25.203Z,1005.52
2018-06-11T14:01:34.623Z,1005.55